sensor_id;sensor_type;location;lat;lon;timestamp;P1;durP1;ratioP1;P2;durP2;ratioP2
24485;SDS011;13449;49.374;8.584;2022-08-01T00:00:52;1.42;;;1.33;;
24485;SDS011;13449;49.374;8.584;2022-08-01T00:03:18;3.05;;;1.70;;
24485;SDS011;13449;49.374;8.584;2022-08-01T00:05:47;1.60;;;1.50;;
24485;SDS011;13449;49.374;8.584;2022-08-01T00:08:13;7.53;;;2.10;;
24485;SDS011;13449;49.374;8.584;2022-08-01T00:10:47;7.35;;;1.30;;
24485;SDS011;13449;49.374;8.584;2022-08-01T00:13:16;3.13;;;1.52;;
24485;SDS011;13449;49.374;8.584;2022-08-01T00:15:49;3.92;;;1.50;;
24485;SDS011;13449;49.374;8.584;2022-08-01T00:18:19;2.13;;;1.38;;
24485;SDS011;13449;49.374;8.584;2022-08-01T00:20:52;2.03;;;1.60;;
24485;SDS011;13449;49.374;8.584;2022-08-01T00:23:21;5.30;;;1.80;;
24485;SDS011;13449;49.374;8.584;2022-08-01T00:25:54;3.50;;;1.48;;
24485;SDS011;13449;49.374;8.584;2022-08-01T00:28:20;1.52;;;1.42;;
24485;SDS011;13449;49.374;8.584;2022-08-01T00:30:47;5.10;;;1.30;;
24485;SDS011;13449;49.374;8.584;2022-08-01T00:33:18;2.63;;;1.73;;
24485;SDS011;13449;49.374;8.584;2022-08-01T00:35:44;3.22;;;1.20;;
24485;SDS011;13449;49.374;8.584;2022-08-01T00:38:11;1.50;;;1.40;;
24485;SDS011;13449;49.374;8.584;2022-08-01T00:40:44;3.10;;;1.17;;
24485;SDS011;13449;49.374;8.584;2022-08-01T00:43:10;1.77;;;1.23;;
24485;SDS011;13449;49.374;8.584;2022-08-01T00:45:37;4.70;;;1.38;;
24485;SDS011;13449;49.374;8.584;2022-08-01T00:48:03;3.95;;;1.13;;
24485;SDS011;13449;49.374;8.584;2022-08-01T00:50:30;2.20;;;0.90;;
24485;SDS011;13449;49.374;8.584;2022-08-01T00:52:58;3.33;;;1.23;;
24485;SDS011;13449;49.374;8.584;2022-08-01T00:55:32;1.20;;;1.10;;
24485;SDS011;13449;49.374;8.584;2022-08-01T00:57:59;1.17;;;1.08;;
24485;SDS011;13449;49.374;8.584;2022-08-01T01:00:37;1.05;;;1.05;;
24485;SDS011;13449;49.374;8.584;2022-08-01T01:03:19;4.30;;;1.58;;
24485;SDS011;13449;49.374;8.584;2022-08-01T01:14:45;2.17;;;1.23;;
24485;SDS011;13449;49.374;8.584;2022-08-01T01:17:21;1.25;;;1.15;;
24485;SDS011;13449;49.374;8.584;2022-08-01T01:20:17;0.90;;;0.80;;
24485;SDS011;13449;49.374;8.584;2022-08-01T01:25:32;1.35;;;1.25;;
24485;SDS011;13449;49.374;8.584;2022-08-01T01:30:36;1.23;;;1.13;;
24485;SDS011;13449;49.374;8.584;2022-08-01T01:33:05;3.53;;;0.93;;
24485;SDS011;13449;49.374;8.584;2022-08-01T01:35:38;1.70;;;1.20;;
24485;SDS011;13449;49.374;8.584;2022-08-01T01:38:13;1.50;;;1.00;;
24485;SDS011;13449;49.374;8.584;2022-08-01T01:40:43;1.95;;;1.10;;
24485;SDS011;13449;49.374;8.584;2022-08-01T01:43:12;5.15;;;1.40;;
24485;SDS011;13449;49.374;8.584;2022-08-01T01:45:40;2.75;;;1.30;;
24485;SDS011;13449;49.374;8.584;2022-08-01T01:48:13;1.80;;;1.30;;
24485;SDS011;13449;49.374;8.584;2022-08-01T01:53:12;2.75;;;1.30;;
24485;SDS011;13449;49.374;8.584;2022-08-01T01:55:40;2.00;;;1.15;;
24485;SDS011;13449;49.374;8.584;2022-08-01T01:58:15;1.83;;;1.10;;
24485;SDS011;13449;49.374;8.584;2022-08-01T02:00:44;2.95;;;1.40;;
24485;SDS011;13449;49.374;8.584;2022-08-01T02:03:21;4.88;;;1.60;;
24485;SDS011;13449;49.374;8.584;2022-08-01T02:05:51;1.30;;;0.95;;
24485;SDS011;13449;49.374;8.584;2022-08-01T02:08:26;1.33;;;1.23;;
24485;SDS011;13449;49.374;8.584;2022-08-01T02:10:57;2.97;;;1.30;;
24485;SDS011;13449;49.374;8.584;2022-08-01T02:13:54;2.15;;;1.40;;
24485;SDS011;13449;49.374;8.584;2022-08-01T02:16:25;3.28;;;1.35;;
24485;SDS011;13449;49.374;8.584;2022-08-01T02:19:02;2.70;;;1.38;;
24485;SDS011;13449;49.374;8.584;2022-08-01T02:21:37;5.60;;;1.80;;
24485;SDS011;13449;49.374;8.584;2022-08-01T02:24:25;1.45;;;1.27;;
24485;SDS011;13449;49.374;8.584;2022-08-01T02:26:56;1.63;;;1.33;;
24485;SDS011;13449;49.374;8.584;2022-08-01T02:29:52;2.63;;;1.40;;
24485;SDS011;13449;49.374;8.584;2022-08-01T02:32:27;1.17;;;1.08;;
24485;SDS011;13449;49.374;8.584;2022-08-01T02:35:04;5.78;;;1.35;;
24485;SDS011;13449;49.374;8.584;2022-08-01T02:37:37;2.50;;;1.48;;
24485;SDS011;13449;49.374;8.584;2022-08-01T02:40:12;1.50;;;1.33;;
24485;SDS011;13449;49.374;8.584;2022-08-01T02:42:42;2.17;;;0.90;;
24485;SDS011;13449;49.374;8.584;2022-08-01T02:45:20;1.30;;;1.20;;
24485;SDS011;13449;49.374;8.584;2022-08-01T02:47:50;2.97;;;0.98;;
24485;SDS011;13449;49.374;8.584;2022-08-01T02:50:26;2.75;;;2.15;;
24485;SDS011;13449;49.374;8.584;2022-08-01T02:52:55;2.13;;;1.55;;
24485;SDS011;13449;49.374;8.584;2022-08-01T02:55:33;6.18;;;1.40;;
24485;SDS011;13449;49.374;8.584;2022-08-01T02:58:03;1.50;;;1.20;;
24485;SDS011;13449;49.374;8.584;2022-08-01T03:00:41;1.92;;;1.30;;
24485;SDS011;13449;49.374;8.584;2022-08-01T03:03:13;1.42;;;1.33;;
24485;SDS011;13449;49.374;8.584;2022-08-01T03:05:54;1.70;;;1.00;;
24485;SDS011;13449;49.374;8.584;2022-08-01T03:08:29;1.30;;;1.10;;
24485;SDS011;13449;49.374;8.584;2022-08-01T03:11:03;2.00;;;1.17;;
24485;SDS011;13449;49.374;8.584;2022-08-01T03:13:34;1.50;;;1.40;;
24485;SDS011;13449;49.374;8.584;2022-08-01T03:16:08;1.10;;;1.00;;
24485;SDS011;13449;49.374;8.584;2022-08-01T03:18:37;1.55;;;1.10;;
24485;SDS011;13449;49.374;8.584;2022-08-01T03:21:16;1.77;;;1.27;;
24485;SDS011;13449;49.374;8.584;2022-08-01T03:23:45;1.17;;;1.05;;
24485;SDS011;13449;49.374;8.584;2022-08-01T03:26:33;3.17;;;1.13;;
24485;SDS011;13449;49.374;8.584;2022-08-01T03:29:03;1.33;;;1.23;;
24485;SDS011;13449;49.374;8.584;2022-08-01T03:31:43;5.05;;;1.38;;
24485;SDS011;13449;49.374;8.584;2022-08-01T03:34:11;2.63;;;1.25;;
24485;SDS011;13449;49.374;8.584;2022-08-01T03:36:48;0.95;;;0.90;;
24485;SDS011;13449;49.374;8.584;2022-08-01T03:39:34;3.50;;;1.70;;
24485;SDS011;13449;49.374;8.584;2022-08-01T03:42:12;1.63;;;1.50;;
24485;SDS011;13449;49.374;8.584;2022-08-01T03:44:45;1.55;;;1.38;;
24485;SDS011;13449;49.374;8.584;2022-08-01T03:47:17;1.58;;;1.23;;
24485;SDS011;13449;49.374;8.584;2022-08-01T03:49:50;3.70;;;1.10;;
24485;SDS011;13449;49.374;8.584;2022-08-01T03:52:18;1.42;;;1.30;;
24485;SDS011;13449;49.374;8.584;2022-08-01T03:54:47;4.30;;;1.27;;
24485;SDS011;13449;49.374;8.584;2022-08-01T03:57:15;2.42;;;1.52;;
24485;SDS011;13449;49.374;8.584;2022-08-01T04:00:03;2.00;;;1.40;;
24485;SDS011;13449;49.374;8.584;2022-08-01T04:02:33;2.55;;;1.55;;
24485;SDS011;13449;49.374;8.584;2022-08-01T04:05:03;2.50;;;1.17;;
24485;SDS011;13449;49.374;8.584;2022-08-01T04:07:31;3.45;;;1.40;;
24485;SDS011;13449;49.374;8.584;2022-08-01T04:10:02;1.35;;;1.25;;
24485;SDS011;13449;49.374;8.584;2022-08-01T04:12:29;4.38;;;1.23;;
24485;SDS011;13449;49.374;8.584;2022-08-01T04:14:56;3.90;;;1.42;;
24485;SDS011;13449;49.374;8.584;2022-08-01T04:17:22;2.15;;;1.95;;
24485;SDS011;13449;49.374;8.584;2022-08-01T04:19:49;4.18;;;2.53;;
24485;SDS011;13449;49.374;8.584;2022-08-01T04:22:15;3.03;;;1.70;;
24485;SDS011;13449;49.374;8.584;2022-08-01T04:24:45;3.15;;;1.77;;
24485;SDS011;13449;49.374;8.584;2022-08-01T04:27:22;2.38;;;1.52;;
24485;SDS011;13449;49.374;8.584;2022-08-01T04:30:15;1.52;;;1.42;;
24485;SDS011;13449;49.374;8.584;2022-08-01T04:32:46;2.00;;;1.45;;
24485;SDS011;13449;49.374;8.584;2022-08-01T04:35:14;2.08;;;0.98;;
24485;SDS011;13449;49.374;8.584;2022-08-01T04:38:04;1.48;;;1.38;;
24485;SDS011;13449;49.374;8.584;2022-08-01T04:40:31;1.13;;;1.02;;
24485;SDS011;13449;49.374;8.584;2022-08-01T04:43:00;2.58;;;1.40;;
24485;SDS011;13449;49.374;8.584;2022-08-01T04:45:27;1.83;;;1.15;;
24485;SDS011;13449;49.374;8.584;2022-08-01T04:47:54;1.52;;;1.30;;
24485;SDS011;13449;49.374;8.584;2022-08-01T04:50:26;0.98;;;0.90;;
24485;SDS011;13449;49.374;8.584;2022-08-01T04:52:53;3.20;;;1.05;;
24485;SDS011;13449;49.374;8.584;2022-08-01T04:55:19;1.60;;;1.17;;
24485;SDS011;13449;49.374;8.584;2022-08-01T04:57:47;2.42;;;1.38;;
24485;SDS011;13449;49.374;8.584;2022-08-01T05:00:14;1.67;;;1.30;;
24485;SDS011;13449;49.374;8.584;2022-08-01T05:02:42;2.70;;;1.33;;
24485;SDS011;13449;49.374;8.584;2022-08-01T05:05:09;1.60;;;1.50;;
24485;SDS011;13449;49.374;8.584;2022-08-01T05:07:38;2.42;;;1.08;;
24485;SDS011;13449;49.374;8.584;2022-08-01T05:10:10;12.77;;;1.80;;
24485;SDS011;13449;49.374;8.584;2022-08-01T05:12:39;3.45;;;1.38;;
24485;SDS011;13449;49.374;8.584;2022-08-01T05:15:08;3.33;;;1.80;;
24485;SDS011;13449;49.374;8.584;2022-08-01T05:17:40;2.90;;;1.10;;
24485;SDS011;13449;49.374;8.584;2022-08-01T05:20:10;5.25;;;1.55;;
24485;SDS011;13449;49.374;8.584;2022-08-01T05:22:38;4.53;;;1.80;;
24485;SDS011;13449;49.374;8.584;2022-08-01T05:25:07;1.60;;;1.20;;
24485;SDS011;13449;49.374;8.584;2022-08-01T05:27:34;4.63;;;1.95;;
24485;SDS011;13449;49.374;8.584;2022-08-01T05:32:33;1.65;;;1.52;;
24485;SDS011;13449;49.374;8.584;2022-08-01T05:35:00;4.30;;;1.65;;
24485;SDS011;13449;49.374;8.584;2022-08-01T05:37:32;2.17;;;1.45;;
24485;SDS011;13449;49.374;8.584;2022-08-01T05:39:59;2.42;;;1.95;;
24485;SDS011;13449;49.374;8.584;2022-08-01T05:42:26;2.65;;;1.60;;
24485;SDS011;13449;49.374;8.584;2022-08-01T05:44:52;4.30;;;1.92;;
24485;SDS011;13449;49.374;8.584;2022-08-01T05:47:19;2.92;;;1.58;;
24485;SDS011;13449;49.374;8.584;2022-08-01T05:49:45;4.15;;;1.67;;
24485;SDS011;13449;49.374;8.584;2022-08-01T05:52:12;3.38;;;1.45;;
24485;SDS011;13449;49.374;8.584;2022-08-01T05:54:38;2.00;;;1.80;;
24485;SDS011;13449;49.374;8.584;2022-08-01T05:57:05;2.38;;;1.80;;
24485;SDS011;13449;49.374;8.584;2022-08-01T05:59:32;3.38;;;1.70;;
24485;SDS011;13449;49.374;8.584;2022-08-01T06:01:59;2.08;;;1.88;;
24485;SDS011;13449;49.374;8.584;2022-08-01T06:04:25;2.13;;;1.70;;
24485;SDS011;13449;49.374;8.584;2022-08-01T06:06:54;2.70;;;1.70;;
24485;SDS011;13449;49.374;8.584;2022-08-01T06:09:20;1.45;;;1.35;;
24485;SDS011;13449;49.374;8.584;2022-08-01T06:11:47;3.30;;;1.50;;
24485;SDS011;13449;49.374;8.584;2022-08-01T06:14:13;1.85;;;1.20;;
24485;SDS011;13449;49.374;8.584;2022-08-01T06:16:42;1.50;;;1.40;;
24485;SDS011;13449;49.374;8.584;2022-08-01T06:19:11;1.27;;;1.17;;
24485;SDS011;13449;49.374;8.584;2022-08-01T06:21:37;1.30;;;1.20;;
24485;SDS011;13449;49.374;8.584;2022-08-01T06:24:04;1.77;;;1.45;;
24485;SDS011;13449;49.374;8.584;2022-08-01T06:26:30;8.00;;;1.10;;
24485;SDS011;13449;49.374;8.584;2022-08-01T06:28:58;2.05;;;1.27;;
24485;SDS011;13449;49.374;8.584;2022-08-01T06:31:24;3.50;;;1.30;;
24485;SDS011;13449;49.374;8.584;2022-08-01T06:33:55;7.30;;;1.00;;
24485;SDS011;13449;49.374;8.584;2022-08-01T06:36:23;4.13;;;0.90;;
24485;SDS011;13449;49.374;8.584;2022-08-01T06:38:51;0.70;;;0.70;;
24485;SDS011;13449;49.374;8.584;2022-08-01T06:41:18;2.38;;;0.80;;
24485;SDS011;13449;49.374;8.584;2022-08-01T06:43:44;0.77;;;0.77;;
24485;SDS011;13449;49.374;8.584;2022-08-01T06:46:11;3.67;;;0.90;;
24485;SDS011;13449;49.374;8.584;2022-08-01T06:48:37;6.55;;;0.85;;
24485;SDS011;13449;49.374;8.584;2022-08-01T06:51:05;2.08;;;0.90;;
24485;SDS011;13449;49.374;8.584;2022-08-01T06:53:35;1.52;;;1.08;;
24485;SDS011;13449;49.374;8.584;2022-08-01T06:56:03;1.20;;;1.10;;
24485;SDS011;13449;49.374;8.584;2022-08-01T06:58:31;2.10;;;1.00;;
24485;SDS011;13449;49.374;8.584;2022-08-01T07:01:03;7.35;;;1.00;;
24485;SDS011;13449;49.374;8.584;2022-08-01T07:03:34;1.05;;;0.90;;
24485;SDS011;13449;49.374;8.584;2022-08-01T07:06:20;1.42;;;0.77;;
24485;SDS011;13449;49.374;8.584;2022-08-01T07:08:48;1.55;;;0.85;;
24485;SDS011;13449;49.374;8.584;2022-08-01T07:11:14;1.55;;;1.00;;
24485;SDS011;13449;49.374;8.584;2022-08-01T07:13:41;1.35;;;0.60;;
24485;SDS011;13449;49.374;8.584;2022-08-01T07:16:12;10.15;;;0.77;;
24485;SDS011;13449;49.374;8.584;2022-08-01T07:18:39;3.15;;;1.48;;
24485;SDS011;13449;49.374;8.584;2022-08-01T07:21:07;0.70;;;0.60;;
24485;SDS011;13449;49.374;8.584;2022-08-01T07:23:55;2.33;;;0.80;;
24485;SDS011;13449;49.374;8.584;2022-08-01T07:26:24;2.00;;;0.80;;
24485;SDS011;13449;49.374;8.584;2022-08-01T07:28:53;1.85;;;0.70;;
24485;SDS011;13449;49.374;8.584;2022-08-01T07:31:22;1.10;;;0.82;;
24485;SDS011;13449;49.374;8.584;2022-08-01T07:33:51;4.30;;;0.98;;
24485;SDS011;13449;49.374;8.584;2022-08-01T07:36:20;1.45;;;0.95;;
24485;SDS011;13449;49.374;8.584;2022-08-01T07:38:47;2.25;;;0.85;;
24485;SDS011;13449;49.374;8.584;2022-08-01T07:41:13;1.17;;;0.65;;
24485;SDS011;13449;49.374;8.584;2022-08-01T07:43:40;1.08;;;0.70;;
24485;SDS011;13449;49.374;8.584;2022-08-01T07:46:18;1.67;;;0.73;;
24485;SDS011;13449;49.374;8.584;2022-08-01T07:48:44;0.47;;;0.43;;
24485;SDS011;13449;49.374;8.584;2022-08-01T07:51:11;1.88;;;0.70;;
24485;SDS011;13449;49.374;8.584;2022-08-01T07:53:40;1.20;;;0.50;;
24485;SDS011;13449;49.374;8.584;2022-08-01T07:56:09;1.17;;;0.55;;
24485;SDS011;13449;49.374;8.584;2022-08-01T07:58:35;3.72;;;0.85;;
24485;SDS011;13449;49.374;8.584;2022-08-01T08:01:02;2.50;;;0.70;;
24485;SDS011;13449;49.374;8.584;2022-08-01T08:03:28;1.27;;;0.80;;
24485;SDS011;13449;49.374;8.584;2022-08-01T08:05:57;2.05;;;0.50;;
24485;SDS011;13449;49.374;8.584;2022-08-01T08:10:54;0.50;;;0.40;;
24485;SDS011;13449;49.374;8.584;2022-08-01T08:13:20;0.47;;;0.40;;
24485;SDS011;13449;49.374;8.584;2022-08-01T08:15:51;0.52;;;0.52;;
24485;SDS011;13449;49.374;8.584;2022-08-01T08:18:18;2.90;;;0.50;;
24485;SDS011;13449;49.374;8.584;2022-08-01T08:20:45;1.58;;;0.90;;
24485;SDS011;13449;49.374;8.584;2022-08-01T08:23:15;0.57;;;0.57;;
24485;SDS011;13449;49.374;8.584;2022-08-01T08:26:15;3.30;;;0.65;;
24485;SDS011;13449;49.374;8.584;2022-08-01T08:28:43;1.65;;;0.55;;
24485;SDS011;13449;49.374;8.584;2022-08-01T08:31:16;2.10;;;0.70;;
24485;SDS011;13449;49.374;8.584;2022-08-01T08:34:03;12.38;;;1.05;;
24485;SDS011;13449;49.374;8.584;2022-08-01T08:36:35;1.92;;;0.93;;
24485;SDS011;13449;49.374;8.584;2022-08-01T08:39:03;0.98;;;0.70;;
24485;SDS011;13449;49.374;8.584;2022-08-01T08:41:36;4.03;;;0.68;;
24485;SDS011;13449;49.374;8.584;2022-08-01T08:44:04;3.05;;;0.60;;
24485;SDS011;13449;49.374;8.584;2022-08-01T08:46:40;5.00;;;0.80;;
24485;SDS011;13449;49.374;8.584;2022-08-01T08:49:11;1.67;;;0.57;;
24485;SDS011;13449;49.374;8.584;2022-08-01T08:51:48;2.58;;;0.52;;
24485;SDS011;13449;49.374;8.584;2022-08-01T08:54:16;0.68;;;0.68;;
24485;SDS011;13449;49.374;8.584;2022-08-01T08:56:57;4.63;;;0.50;;
24485;SDS011;13449;49.374;8.584;2022-08-01T08:59:24;2.15;;;0.63;;
24485;SDS011;13449;49.374;8.584;2022-08-01T09:01:58;1.55;;;0.50;;
24485;SDS011;13449;49.374;8.584;2022-08-01T09:04:25;0.52;;;0.52;;
24485;SDS011;13449;49.374;8.584;2022-08-01T09:06:58;0.85;;;0.63;;
24485;SDS011;13449;49.374;8.584;2022-08-01T09:09:31;0.60;;;0.40;;
24485;SDS011;13449;49.374;8.584;2022-08-01T09:12:15;2.13;;;0.55;;
24485;SDS011;13449;49.374;8.584;2022-08-01T09:14:46;1.65;;;0.63;;
24485;SDS011;13449;49.374;8.584;2022-08-01T09:17:15;1.50;;;0.50;;
24485;SDS011;13449;49.374;8.584;2022-08-01T09:19:46;0.70;;;0.60;;
24485;SDS011;13449;49.374;8.584;2022-08-01T09:22:17;1.08;;;0.50;;
24485;SDS011;13449;49.374;8.584;2022-08-01T09:25:06;0.70;;;0.47;;
24485;SDS011;13449;49.374;8.584;2022-08-01T09:27:35;2.58;;;0.40;;
24485;SDS011;13449;49.374;8.584;2022-08-01T09:30:12;1.02;;;0.50;;
24485;SDS011;13449;49.374;8.584;2022-08-01T09:32:57;0.40;;;0.40;;
24485;SDS011;13449;49.374;8.584;2022-08-01T09:35:36;0.98;;;0.40;;
24485;SDS011;13449;49.374;8.584;2022-08-01T09:40:46;1.20;;;0.47;;
24485;SDS011;13449;49.374;8.584;2022-08-01T09:43:17;1.27;;;0.70;;
24485;SDS011;13449;49.374;8.584;2022-08-01T09:45:45;3.40;;;0.40;;
24485;SDS011;13449;49.374;8.584;2022-08-01T09:48:20;0.77;;;0.63;;
24485;SDS011;13449;49.374;8.584;2022-08-01T09:50:54;0.52;;;0.30;;
24485;SDS011;13449;49.374;8.584;2022-08-01T09:53:39;0.93;;;0.50;;
24485;SDS011;13449;49.374;8.584;2022-08-01T09:56:18;1.20;;;0.52;;
24485;SDS011;13449;49.374;8.584;2022-08-01T09:58:49;0.82;;;0.40;;
24485;SDS011;13449;49.374;8.584;2022-08-01T10:04:11;7.72;;;0.40;;
24485;SDS011;13449;49.374;8.584;2022-08-01T10:06:41;1.27;;;0.30;;
24485;SDS011;13449;49.374;8.584;2022-08-01T10:09:11;0.70;;;0.40;;
24485;SDS011;13449;49.374;8.584;2022-08-01T10:11:42;4.30;;;0.40;;
24485;SDS011;13449;49.374;8.584;2022-08-01T10:14:10;0.73;;;0.50;;
24485;SDS011;13449;49.374;8.584;2022-08-01T10:16:43;1.05;;;0.45;;
24485;SDS011;13449;49.374;8.584;2022-08-01T10:19:19;0.85;;;0.85;;
24485;SDS011;13449;49.374;8.584;2022-08-01T10:21:48;1.55;;;0.40;;
24485;SDS011;13449;49.374;8.584;2022-08-01T10:24:25;2.78;;;0.75;;
24485;SDS011;13449;49.374;8.584;2022-08-01T10:26:55;0.30;;;0.30;;
24485;SDS011;13449;49.374;8.584;2022-08-01T10:29:40;0.40;;;0.40;;
24485;SDS011;13449;49.374;8.584;2022-08-01T10:32:25;1.35;;;0.50;;
24485;SDS011;13449;49.374;8.584;2022-08-01T10:34:54;1.65;;;0.40;;
24485;SDS011;13449;49.374;8.584;2022-08-01T10:37:21;2.05;;;0.70;;
24485;SDS011;13449;49.374;8.584;2022-08-01T10:39:47;3.80;;;0.52;;
24485;SDS011;13449;49.374;8.584;2022-08-01T10:42:33;0.75;;;0.50;;
24485;SDS011;13449;49.374;8.584;2022-08-01T10:45:01;1.55;;;0.47;;
24485;SDS011;13449;49.374;8.584;2022-08-01T10:47:38;1.35;;;0.40;;
24485;SDS011;13449;49.374;8.584;2022-08-01T10:50:21;1.42;;;0.55;;
24485;SDS011;13449;49.374;8.584;2022-08-01T10:53:16;4.45;;;0.40;;
24485;SDS011;13449;49.374;8.584;2022-08-01T10:58:28;1.73;;;0.30;;
24485;SDS011;13449;49.374;8.584;2022-08-01T11:03:43;0.68;;;0.43;;
24485;SDS011;13449;49.374;8.584;2022-08-01T11:28:27;0.63;;;0.52;;
24485;SDS011;13449;49.374;8.584;2022-08-01T11:36:16;1.35;;;0.43;;
24485;SDS011;13449;49.374;8.584;2022-08-01T11:41:39;5.95;;;0.65;;
24485;SDS011;13449;49.374;8.584;2022-08-01T11:44:11;0.40;;;0.30;;
24485;SDS011;13449;49.374;8.584;2022-08-01T11:46:52;3.85;;;0.50;;
24485;SDS011;13449;49.374;8.584;2022-08-01T11:52:32;2.55;;;0.40;;
24485;SDS011;13449;49.374;8.584;2022-08-01T11:57:29;1.13;;;0.50;;
24485;SDS011;13449;49.374;8.584;2022-08-01T12:00:03;0.38;;;0.38;;
24485;SDS011;13449;49.374;8.584;2022-08-01T12:02:41;3.10;;;0.60;;
24485;SDS011;13449;49.374;8.584;2022-08-01T12:05:11;0.30;;;0.30;;
24485;SDS011;13449;49.374;8.584;2022-08-01T12:07:41;0.75;;;0.55;;
24485;SDS011;13449;49.374;8.584;2022-08-01T12:10:12;2.17;;;0.40;;
24485;SDS011;13449;49.374;8.584;2022-08-01T12:12:48;0.40;;;0.40;;
24485;SDS011;13449;49.374;8.584;2022-08-01T12:15:20;0.40;;;0.30;;
24485;SDS011;13449;49.374;8.584;2022-08-01T12:17:55;0.40;;;0.40;;
24485;SDS011;13449;49.374;8.584;2022-08-01T12:20:31;0.47;;;0.47;;
24485;SDS011;13449;49.374;8.584;2022-08-01T12:23:06;0.40;;;0.40;;
24485;SDS011;13449;49.374;8.584;2022-08-01T12:25:34;5.88;;;0.60;;
24485;SDS011;13449;49.374;8.584;2022-08-01T12:28:02;2.90;;;0.57;;
24485;SDS011;13449;49.374;8.584;2022-08-01T12:30:32;2.20;;;0.80;;
24485;SDS011;13449;49.374;8.584;2022-08-01T12:33:03;0.50;;;0.50;;
24485;SDS011;13449;49.374;8.584;2022-08-01T12:35:31;0.90;;;0.50;;
24485;SDS011;13449;49.374;8.584;2022-08-01T12:38:00;0.70;;;0.55;;
24485;SDS011;13449;49.374;8.584;2022-08-01T12:40:33;6.78;;;0.70;;
24485;SDS011;13449;49.374;8.584;2022-08-01T12:43:06;8.35;;;0.50;;
24485;SDS011;13449;49.374;8.584;2022-08-01T12:45:44;2.55;;;0.60;;
24485;SDS011;13449;49.374;8.584;2022-08-01T12:48:22;0.60;;;0.60;;
24485;SDS011;13449;49.374;8.584;2022-08-01T12:50:50;1.05;;;0.95;;
24485;SDS011;13449;49.374;8.584;2022-08-01T12:53:18;0.60;;;0.60;;
24485;SDS011;13449;49.374;8.584;2022-08-01T12:55:50;1.85;;;0.57;;
24485;SDS011;13449;49.374;8.584;2022-08-01T12:58:27;0.47;;;0.47;;
24485;SDS011;13449;49.374;8.584;2022-08-01T13:03:32;0.40;;;0.40;;
24485;SDS011;13449;49.374;8.584;2022-08-01T13:05:59;1.52;;;0.65;;
24485;SDS011;13449;49.374;8.584;2022-08-01T13:08:30;1.83;;;0.30;;
24485;SDS011;13449;49.374;8.584;2022-08-01T13:11:05;5.80;;;0.57;;
24485;SDS011;13449;49.374;8.584;2022-08-01T13:13:44;3.42;;;0.40;;
24485;SDS011;13449;49.374;8.584;2022-08-01T13:16:16;0.90;;;0.40;;
24485;SDS011;13449;49.374;8.584;2022-08-01T13:19:05;1.35;;;0.60;;
24485;SDS011;13449;49.374;8.584;2022-08-01T13:21:32;0.70;;;0.47;;
24485;SDS011;13449;49.374;8.584;2022-08-01T13:24:23;3.25;;;0.45;;
24485;SDS011;13449;49.374;8.584;2022-08-01T13:26:56;1.63;;;0.40;;
24485;SDS011;13449;49.374;8.584;2022-08-01T13:29:29;2.13;;;0.30;;
24485;SDS011;13449;49.374;8.584;2022-08-01T13:32:11;0.73;;;0.68;;
24485;SDS011;13449;49.374;8.584;2022-08-01T13:35:02;0.73;;;0.60;;
24485;SDS011;13449;49.374;8.584;2022-08-01T13:37:30;1.90;;;0.60;;
24485;SDS011;13449;49.374;8.584;2022-08-01T13:39:57;2.05;;;0.63;;
24485;SDS011;13449;49.374;8.584;2022-08-01T13:42:24;1.23;;;0.52;;
24485;SDS011;13449;49.374;8.584;2022-08-01T13:44:55;2.60;;;0.47;;
24485;SDS011;13449;49.374;8.584;2022-08-01T13:47:21;1.13;;;1.02;;
24485;SDS011;13449;49.374;8.584;2022-08-01T13:49:57;0.50;;;0.50;;
24485;SDS011;13449;49.374;8.584;2022-08-01T13:52:28;1.77;;;0.47;;
24485;SDS011;13449;49.374;8.584;2022-08-01T13:54:57;0.60;;;0.60;;
24485;SDS011;13449;49.374;8.584;2022-08-01T13:57:24;1.90;;;0.60;;
24485;SDS011;13449;49.374;8.584;2022-08-01T14:00:03;0.50;;;0.32;;
24485;SDS011;13449;49.374;8.584;2022-08-01T14:02:31;0.65;;;0.47;;
24485;SDS011;13449;49.374;8.584;2022-08-01T14:04:58;0.30;;;0.30;;
24485;SDS011;13449;49.374;8.584;2022-08-01T14:07:27;0.40;;;0.40;;
24485;SDS011;13449;49.374;8.584;2022-08-01T14:09:54;1.20;;;0.45;;
24485;SDS011;13449;49.374;8.584;2022-08-01T14:15:12;3.75;;;0.75;;
24485;SDS011;13449;49.374;8.584;2022-08-01T14:18:05;6.65;;;0.70;;
24485;SDS011;13449;49.374;8.584;2022-08-01T14:23:10;0.90;;;0.55;;
24485;SDS011;13449;49.374;8.584;2022-08-01T14:25:37;0.40;;;0.40;;
24485;SDS011;13449;49.374;8.584;2022-08-01T14:28:31;5.72;;;0.50;;
24485;SDS011;13449;49.374;8.584;2022-08-01T14:31:00;0.45;;;0.40;;
24485;SDS011;13449;49.374;8.584;2022-08-01T14:33:34;1.17;;;0.50;;
24485;SDS011;13449;49.374;8.584;2022-08-01T14:36:01;0.45;;;0.40;;
24485;SDS011;13449;49.374;8.584;2022-08-01T14:38:56;1.25;;;0.50;;
24485;SDS011;13449;49.374;8.584;2022-08-01T14:41:26;4.03;;;0.82;;
24485;SDS011;13449;49.374;8.584;2022-08-01T14:44:01;2.60;;;0.75;;
24485;SDS011;13449;49.374;8.584;2022-08-01T14:46:27;1.02;;;0.52;;
24485;SDS011;13449;49.374;8.584;2022-08-01T14:49:03;0.70;;;0.55;;
24485;SDS011;13449;49.374;8.584;2022-08-01T14:51:29;0.52;;;0.40;;
24485;SDS011;13449;49.374;8.584;2022-08-01T14:54:06;6.10;;;0.50;;
24485;SDS011;13449;49.374;8.584;2022-08-01T14:56:35;0.60;;;0.60;;
24485;SDS011;13449;49.374;8.584;2022-08-01T14:59:07;4.07;;;0.50;;
24485;SDS011;13449;49.374;8.584;2022-08-01T15:01:46;1.85;;;0.63;;
24485;SDS011;13449;49.374;8.584;2022-08-01T15:04:22;9.63;;;0.82;;
24485;SDS011;13449;49.374;8.584;2022-08-01T15:06:50;0.52;;;0.50;;
24485;SDS011;13449;49.374;8.584;2022-08-01T15:09:24;1.27;;;0.93;;
24485;SDS011;13449;49.374;8.584;2022-08-01T15:11:50;0.77;;;0.40;;
24485;SDS011;13449;49.374;8.584;2022-08-01T15:14:26;1.90;;;0.40;;
24485;SDS011;13449;49.374;8.584;2022-08-01T15:17:11;1.15;;;0.38;;
24485;SDS011;13449;49.374;8.584;2022-08-01T15:19:39;0.45;;;0.40;;
24485;SDS011;13449;49.374;8.584;2022-08-01T15:22:07;1.58;;;0.20;;
24485;SDS011;13449;49.374;8.584;2022-08-01T15:24:35;3.92;;;0.68;;
24485;SDS011;13449;49.374;8.584;2022-08-01T15:27:01;3.80;;;0.60;;
24485;SDS011;13449;49.374;8.584;2022-08-01T15:29:28;0.80;;;0.60;;
24485;SDS011;13449;49.374;8.584;2022-08-01T15:31:57;1.50;;;0.40;;
24485;SDS011;13449;49.374;8.584;2022-08-01T15:34:26;0.40;;;0.35;;
24485;SDS011;13449;49.374;8.584;2022-08-01T15:36:58;0.40;;;0.40;;
24485;SDS011;13449;49.374;8.584;2022-08-01T15:39:27;0.40;;;0.40;;
24485;SDS011;13449;49.374;8.584;2022-08-01T15:41:54;1.50;;;0.60;;
24485;SDS011;13449;49.374;8.584;2022-08-01T15:44:20;1.63;;;0.50;;
24485;SDS011;13449;49.374;8.584;2022-08-01T15:46:48;3.22;;;0.50;;
24485;SDS011;13449;49.374;8.584;2022-08-01T15:49:15;2.10;;;0.70;;
24485;SDS011;13449;49.374;8.584;2022-08-01T15:51:45;0.30;;;0.30;;
24485;SDS011;13449;49.374;8.584;2022-08-01T15:54:11;1.13;;;0.40;;
24485;SDS011;13449;49.374;8.584;2022-08-01T15:56:40;0.30;;;0.30;;
24485;SDS011;13449;49.374;8.584;2022-08-01T15:59:07;7.55;;;0.47;;
24485;SDS011;13449;49.374;8.584;2022-08-01T16:01:34;0.32;;;0.30;;
24485;SDS011;13449;49.374;8.584;2022-08-01T16:04:01;0.88;;;0.40;;
24485;SDS011;13449;49.374;8.584;2022-08-01T16:06:28;1.23;;;0.40;;
24485;SDS011;13449;49.374;8.584;2022-08-01T16:08:55;0.60;;;0.60;;
24485;SDS011;13449;49.374;8.584;2022-08-01T16:11:24;0.63;;;0.45;;
24485;SDS011;13449;49.374;8.584;2022-08-01T16:13:53;0.73;;;0.65;;
24485;SDS011;13449;49.374;8.584;2022-08-01T16:16:21;0.50;;;0.40;;
24485;SDS011;13449;49.374;8.584;2022-08-01T16:18:48;1.95;;;0.50;;
24485;SDS011;13449;49.374;8.584;2022-08-01T16:21:19;1.42;;;0.32;;
24485;SDS011;13449;49.374;8.584;2022-08-01T16:23:52;2.78;;;0.40;;
24485;SDS011;13449;49.374;8.584;2022-08-01T16:26:21;2.28;;;0.50;;
24485;SDS011;13449;49.374;8.584;2022-08-01T16:28:54;0.30;;;0.30;;
24485;SDS011;13449;49.374;8.584;2022-08-01T16:31:21;0.45;;;0.40;;